createdAt,value
2018-04-26T00:00:26.526Z,96736.97
2018-04-26T00:03:49.406Z,96735.88
2018-04-26T00:07:12.807Z,96722.83
2018-04-26T00:10:35.738Z,96725.77
2018-04-26T00:13:58.664Z,96731.72
2018-04-26T00:17:21.512Z,96730.77
2018-04-26T00:20:44.376Z,96731.84
2018-04-26T00:24:07.307Z,96727.58
2018-04-26T00:27:30.928Z,96717.99
2018-04-26T00:30:53.788Z,96723.23
2018-04-26T00:34:16.638Z,96733.33
2018-04-26T00:37:39.538Z,96731.53
2018-04-26T00:41:02.417Z,96724.98
2018-04-26T00:44:26.084Z,96723.48
2018-04-26T00:47:49.687Z,96722.33
2018-04-26T00:51:12.561Z,96709.09
2018-04-26T00:54:36.188Z,96715.16
2018-04-26T00:57:59.074Z,96723.79
2018-04-26T01:01:21.935Z,96723.50
2018-04-26T01:04:45.591Z,96727.05
2018-04-26T01:08:08.470Z,96725.64
2018-04-26T01:11:32.098Z,96730.72
2018-04-26T01:14:54.942Z,96727.20
2018-04-26T01:18:17.810Z,96728.63
2018-04-26T01:21:41.692Z,96725.47
2018-04-26T01:25:05.316Z,96730.55
2018-04-26T01:28:28.232Z,96719.70
2018-04-26T01:31:51.158Z,96719.59
2018-04-26T01:35:14.070Z,96728.37
2018-04-26T01:38:38.186Z,96717.71
2018-04-26T01:42:03.000Z,96719.16
2018-04-26T01:45:26.615Z,96723.45
2018-04-26T01:48:49.470Z,96724.39
2018-04-26T01:52:13.104Z,96725.63
2018-04-26T01:55:35.972Z,96722.67
2018-04-26T01:58:58.862Z,96720.94
2018-04-26T02:02:21.732Z,96721.07
2018-04-26T02:05:44.632Z,96733.95
2018-04-26T02:09:07.499Z,96737.45
2018-04-26T02:12:30.338Z,96730.69
2018-04-26T02:15:53.295Z,96721.65
2018-04-26T02:19:16.897Z,96724.34
2018-04-26T02:22:39.772Z,96729.14
2018-04-26T02:26:02.690Z,96741.74
2018-04-26T02:29:25.627Z,96730.69
2018-04-26T02:32:48.513Z,96748.89
2018-04-26T02:36:11.371Z,96750.80
2018-04-26T02:39:34.205Z,96764.23
2018-04-26T02:42:57.101Z,96765.58
2018-04-26T02:46:20.744Z,96778.34
2018-04-26T02:49:44.357Z,96776.98
2018-04-26T02:53:07.212Z,96790.23
2018-04-26T02:56:30.096Z,96780.59
2018-04-26T02:59:52.984Z,96794.40
2018-04-26T03:03:15.927Z,96795.56
2018-04-26T03:06:39.556Z,96806.85
2018-04-26T03:10:02.459Z,96801.62
2018-04-26T03:13:25.332Z,96812.67
2018-04-26T03:16:49.174Z,96808.57
2018-04-26T03:20:12.029Z,96811.72
2018-04-26T03:23:34.885Z,96824.55
2018-04-26T03:26:57.732Z,96818.34
2018-04-26T03:30:20.649Z,96815.51
2018-04-26T03:33:43.557Z,96815.92
2018-04-26T03:37:06.423Z,96823.98
2018-04-26T03:40:29.343Z,96818.08
2018-04-26T03:43:52.176Z,96828.45
2018-04-26T03:47:15.078Z,96822.53
2018-04-26T03:50:37.996Z,96824.67
2018-04-26T03:54:00.869Z,96834.39
2018-04-26T03:57:23.718Z,96832.45
2018-04-26T04:00:58.446Z,96844.95
2018-04-26T04:04:33.851Z,96860.45
2018-04-26T04:07:56.692Z,96860.70
2018-04-26T04:11:19.542Z,96858.23
2018-04-26T04:14:42.656Z,96863.95
2018-04-26T04:18:05.471Z,96849.49
2018-04-26T04:21:28.478Z,96864.23
2018-04-26T04:24:52.116Z,96855.28
2018-04-26T04:28:16.453Z,96862.97
2018-04-26T04:31:39.310Z,96864.28
2018-04-26T04:35:02.192Z,96876.51
2018-04-26T04:38:26.946Z,96872.33
2018-04-26T04:41:49.844Z,96869.27
2018-04-26T04:45:13.487Z,96878.83
2018-04-26T04:48:36.420Z,96878.67
2018-04-26T04:52:00.052Z,96870.02
2018-04-26T04:55:22.908Z,96872.35
2018-04-26T04:58:45.832Z,96891.80
2018-04-26T05:02:09.520Z,96894.55
2018-04-26T05:05:32.314Z,96897.05
2018-04-26T05:08:55.173Z,96892.70
2018-04-26T05:12:18.066Z,96894.92
2018-04-26T05:15:40.932Z,96898.80
2018-04-26T05:19:03.836Z,96904.09
2018-04-26T05:22:26.787Z,96909.11
2018-04-26T05:25:50.497Z,96909.77
2018-04-26T05:29:13.327Z,96927.25
2018-04-26T05:32:36.238Z,96934.06
2018-04-26T05:35:59.110Z,96942.90
2018-04-26T05:39:22.029Z,96947.45
2018-04-26T05:42:44.958Z,96950.83
2018-04-26T05:46:07.907Z,96951.75
2018-04-26T05:49:30.962Z,96951.27
2018-04-26T05:52:54.601Z,96944.60
2018-04-26T05:56:18.291Z,96958.44
2018-04-26T05:59:41.160Z,96964.93
2018-04-26T06:03:04.063Z,96968.95
2018-04-26T06:06:26.934Z,96967.24
2018-04-26T06:09:51.421Z,96972.59
2018-04-26T06:13:14.281Z,96987.23
2018-04-26T06:16:37.241Z,96986.39
2018-04-26T06:20:00.124Z,96983.52
2018-04-26T06:23:23.063Z,96980.47
2018-04-26T06:26:46.709Z,96970.01
2018-04-26T06:30:10.362Z,96972.09
2018-04-26T06:33:34.736Z,96990.77
2018-04-26T06:36:58.444Z,96993.62
2018-04-26T06:40:22.079Z,96982.39
2018-04-26T06:43:44.921Z,96983.13
2018-04-26T06:47:07.792Z,96985.59
2018-04-26T06:50:30.791Z,96998.14
2018-04-26T06:53:53.691Z,96996.66
2018-04-26T06:57:16.537Z,97000.07
2018-04-26T07:00:39.393Z,96994.95
2018-04-26T07:04:02.332Z,97005.30
2018-04-26T07:07:26.727Z,97003.88
2018-04-26T07:10:50.380Z,97002.48
2018-04-26T07:14:13.239Z,97002.05
2018-04-26T07:17:36.273Z,97002.05
2018-04-26T07:20:59.938Z,96996.66
2018-04-26T07:24:22.825Z,96992.14
2018-04-26T07:27:45.692Z,96996.56
2018-04-26T07:31:09.292Z,96993.25
2018-04-26T07:34:32.181Z,96996.36
2018-04-26T07:38:06.051Z,96994.32
2018-04-26T07:41:29.033Z,96990.19
2018-04-26T07:44:51.989Z,96998.80
2018-04-26T07:48:14.871Z,96993.77
2018-04-26T07:51:37.886Z,96999.66
2018-04-26T07:55:00.808Z,97012.95
2018-04-26T07:58:23.708Z,97007.66
2018-04-26T08:01:46.817Z,97002.52
2018-04-26T08:05:09.630Z,97009.76
2018-04-26T08:08:32.672Z,97005.06
2018-04-26T08:11:56.293Z,96999.66
2018-04-26T08:15:19.344Z,97000.13
2018-04-26T08:18:42.213Z,96997.52
2018-04-26T08:22:05.838Z,96997.86
2018-04-26T08:25:28.720Z,96994.64
2018-04-26T08:28:52.399Z,96998.64
2018-04-26T08:32:15.295Z,97001.45
2018-04-26T08:35:38.926Z,97000.72
2018-04-26T08:39:03.176Z,96994.17
2018-04-26T08:42:26.102Z,96996.75
2018-04-26T08:45:52.233Z,96998.91
2018-04-26T08:49:15.191Z,97010.18
2018-04-26T08:52:38.822Z,97007.45
2018-04-26T08:56:01.754Z,97010.73
2018-04-26T08:59:25.375Z,97009.27
2018-04-26T09:02:48.305Z,97009.78
2018-04-26T09:06:11.146Z,97019.41
2018-04-26T09:09:33.998Z,97025.35
2018-04-26T09:12:56.858Z,97025.39
2018-04-26T09:16:20.529Z,97019.70
2018-04-26T09:19:44.180Z,97014.69
2018-04-26T09:23:07.784Z,97024.94
2018-04-26T09:26:30.614Z,97029.09
2018-04-26T09:29:53.440Z,97043.58
2018-04-26T09:33:22.907Z,97034.09
2018-04-26T09:36:46.516Z,97021.52
2018-04-26T09:40:10.027Z,97035.70
2018-04-26T09:43:32.904Z,97036.06
2018-04-26T09:46:56.916Z,97040.12
2018-04-26T09:50:20.518Z,97045.32
2018-04-26T09:53:43.375Z,97042.53
2018-04-26T09:57:06.206Z,97038.80
2018-04-26T10:00:29.875Z,97036.38
2018-04-26T10:03:54.287Z,97040.39
2018-04-26T10:07:17.881Z,97033.53
2018-04-26T10:10:40.735Z,97042.27
2018-04-26T10:14:03.661Z,97035.20
2018-04-26T10:17:26.475Z,97028.30
2018-04-26T10:20:50.148Z,97031.25
2018-04-26T10:24:13.024Z,97040.19
2018-04-26T10:27:35.937Z,97036.72
2018-04-26T10:30:59.710Z,97045.98
2018-04-26T10:34:22.545Z,97045.31
2018-04-26T10:37:46.140Z,97036.75
2018-04-26T10:41:08.981Z,97041.38
2018-04-26T10:44:31.944Z,97037.51
2018-04-26T10:47:54.866Z,97038.80
2018-04-26T10:51:18.471Z,97036.55
2018-04-26T10:54:41.300Z,97045.30
2018-04-26T10:58:04.172Z,97047.04
2018-04-26T11:01:27.040Z,97042.33
2018-04-26T11:04:50.055Z,97041.96
2018-04-26T11:08:14.415Z,97043.27
2018-04-26T11:11:37.364Z,97039.13
2018-04-26T11:15:00.135Z,97037.19
2018-04-26T11:18:22.989Z,97038.49
2018-04-26T11:21:46.017Z,97028.45
2018-04-26T11:25:08.871Z,97023.61
2018-04-26T11:28:31.705Z,97022.37
2018-04-26T11:31:54.601Z,97017.91
2018-04-26T11:35:17.477Z,97018.17
2018-04-26T11:38:41.124Z,97024.77
2018-04-26T11:42:03.988Z,97007.97
2018-04-26T11:45:26.836Z,97017.57
2018-04-26T11:48:50.451Z,97023.38
2018-04-26T11:52:13.289Z,97015.94
2018-04-26T11:55:36.127Z,97015.55
2018-04-26T11:58:59.738Z,97009.64
2018-04-26T12:02:22.665Z,97008.71
2018-04-26T12:05:45.426Z,97009.14
2018-04-26T12:09:08.254Z,96999.70
2018-04-26T12:12:31.077Z,96995.66
2018-04-26T12:15:56.500Z,96999.82
2018-04-26T12:19:19.338Z,96993.59
2018-04-26T12:22:42.947Z,96994.67
2018-04-26T12:26:05.792Z,96987.93
2018-04-26T12:29:28.659Z,96989.06
2018-04-26T12:32:51.525Z,96987.80
2018-04-26T12:36:21.034Z,96991.97
2018-04-26T12:39:44.011Z,96989.36
2018-04-26T12:43:06.989Z,96994.20
2018-04-26T12:46:30.119Z,96993.55
2018-04-26T12:49:53.007Z,96998.26
2018-04-26T12:53:15.860Z,96989.46
2018-04-26T12:56:38.788Z,96992.09
2018-04-26T13:00:02.567Z,96997.37
2018-04-26T13:03:25.512Z,96987.39
2018-04-26T13:06:49.171Z,96988.55
2018-04-26T13:10:12.796Z,96994.84
2018-04-26T13:13:35.746Z,96993.42
2018-04-26T13:16:58.756Z,96989.04
2018-04-26T13:20:21.605Z,96983.05
2018-04-26T13:23:44.464Z,96985.15
2018-04-26T13:27:07.410Z,96988.77
2018-04-26T13:30:31.707Z,96977.73
2018-04-26T13:33:55.337Z,96972.35
2018-04-26T13:37:18.187Z,96978.72
2018-04-26T13:40:41.102Z,96974.14
2018-04-26T13:44:03.943Z,96964.73
2018-04-26T13:47:26.794Z,96960.41
2018-04-26T13:50:50.139Z,96963.84
2018-04-26T13:54:13.157Z,96955.11
2018-04-26T13:57:36.059Z,96951.38
2018-04-26T14:00:58.908Z,96945.66
2018-04-26T14:04:21.765Z,96936.73
2018-04-26T14:07:44.627Z,96942.86
2018-04-26T14:11:08.326Z,96941.38
2018-04-26T14:14:32.207Z,96937.17
2018-04-26T14:17:55.145Z,96936.41
2018-04-26T14:21:18.758Z,96941.93
2018-04-26T14:24:41.623Z,96943.97
2018-04-26T14:28:04.535Z,96937.45
2018-04-26T14:31:27.430Z,96933.34
2018-04-26T14:34:51.116Z,96936.22
2018-04-26T14:38:14.777Z,96932.50
2018-04-26T14:41:38.401Z,96930.58
2018-04-26T14:45:01.452Z,96929.13
2018-04-26T14:48:24.375Z,96934.14
2018-04-26T14:51:47.263Z,96928.63
2018-04-26T14:55:10.935Z,96919.44
2018-04-26T14:58:42.327Z,96908.20
2018-04-26T15:02:05.986Z,96905.49
2018-04-26T15:05:29.720Z,96898.51
2018-04-26T15:08:52.904Z,96893.17
2018-04-26T15:12:24.014Z,96888.69
2018-04-26T15:15:47.151Z,96888.33
2018-04-26T15:19:10.030Z,96885.45
2018-04-26T15:26:11.274Z,96883.54
2018-04-26T15:29:34.244Z,96886.48
2018-04-26T15:32:57.118Z,96887.10
2018-04-26T15:36:20.751Z,96874.09
2018-04-26T15:39:43.596Z,96875.28
2018-04-26T15:43:06.976Z,96880.94
2018-04-26T15:46:32.024Z,96879.97
2018-04-26T15:50:04.599Z,96871.62
2018-04-26T15:53:45.616Z,96868.38
2018-04-26T16:06:09.648Z,96864.53
2018-04-26T16:09:43.637Z,96866.34
2018-04-26T16:13:30.378Z,96871.38
2018-04-26T16:17:25.417Z,96864.88
2018-04-26T16:21:06.719Z,96854.95
2018-04-26T16:24:47.094Z,96861.61
2018-04-26T16:28:27.562Z,96860.39
2018-04-26T16:32:08.038Z,96850.89
2018-04-26T16:35:42.618Z,96859.67
2018-04-26T16:39:16.378Z,96864.59
2018-04-26T16:42:39.281Z,96857.37
2018-04-26T16:46:02.192Z,96850.09
2018-04-26T16:49:25.102Z,96853.27
2018-04-26T16:52:47.966Z,96852.95
2018-04-26T16:56:10.815Z,96858.72
2018-04-26T16:59:33.717Z,96855.95
2018-04-26T17:02:56.579Z,96851.16
2018-04-26T17:06:19.508Z,96848.88
2018-04-26T17:09:43.265Z,96847.95
2018-04-26T17:13:06.240Z,96854.36
2018-04-26T17:16:29.242Z,96839.94
2018-04-26T17:19:52.120Z,96846.76
2018-04-26T17:23:15.001Z,96846.86
2018-04-26T17:26:38.696Z,96849.16
2018-04-26T17:30:02.594Z,96845.17
2018-04-26T17:33:26.348Z,96847.63
2018-04-26T17:36:49.399Z,96857.02
2018-04-26T17:40:14.085Z,96862.28
2018-04-26T17:43:37.785Z,96861.13
2018-04-26T17:47:00.909Z,96852.48
2018-04-26T17:50:24.866Z,96852.54
2018-04-26T17:53:47.753Z,96846.31
2018-04-26T17:57:12.466Z,96846.77
2018-04-26T18:00:35.664Z,96856.90
2018-04-26T18:03:58.841Z,96858.17
2018-04-26T18:07:24.195Z,96864.88
2018-04-26T18:10:47.065Z,96860.64
2018-04-26T18:14:09.985Z,96866.78
2018-04-26T18:17:33.092Z,96865.39
2018-04-26T18:20:56.069Z,96872.56
2018-04-26T18:24:19.711Z,96870.64
2018-04-26T18:27:43.365Z,96876.45
2018-04-26T18:31:07.873Z,96873.42
2018-04-26T18:34:31.608Z,96878.01
2018-04-26T18:37:54.499Z,96878.47
2018-04-26T18:41:17.405Z,96882.31
2018-04-26T18:44:40.275Z,96886.09
2018-04-26T18:48:03.222Z,96885.58
2018-04-26T18:51:26.839Z,96886.46
2018-04-26T18:54:49.786Z,96887.77
2018-04-26T18:58:12.702Z,96891.72
2018-04-26T19:01:36.524Z,96898.92
2018-04-26T19:05:00.688Z,96900.06
2018-04-26T19:08:24.036Z,96895.91
2018-04-26T19:11:47.454Z,96898.73
2018-04-26T19:15:10.516Z,96902.81
2018-04-26T19:18:34.208Z,96901.86
2018-04-26T19:21:57.174Z,96894.72
2018-04-26T19:25:20.029Z,96898.27
2018-04-26T19:28:42.952Z,96900.49
2018-04-26T19:32:07.186Z,96898.73
2018-04-26T19:35:30.158Z,96896.55
2018-04-26T19:38:55.644Z,96898.70
2018-04-26T19:42:18.510Z,96899.08
2018-04-26T19:45:41.651Z,96895.80
2018-04-26T19:49:05.382Z,96894.28
2018-04-26T19:52:29.065Z,96888.02
2018-04-26T19:55:51.983Z,96889.83
2018-04-26T19:59:15.584Z,96888.14
2018-04-26T20:02:38.505Z,96888.41
2018-04-26T20:06:12.482Z,96877.34
2018-04-26T20:09:35.405Z,96879.64
2018-04-26T20:12:59.072Z,96876.00
2018-04-26T20:16:21.945Z,96875.16
2018-04-26T20:19:44.805Z,96873.78
2018-04-26T20:23:07.702Z,96870.19
2018-04-26T20:26:54.169Z,96867.72
2018-04-26T20:30:17.088Z,96867.58
2018-04-26T20:33:40.351Z,96865.08
2018-04-26T20:37:04.073Z,96860.59
2018-04-26T20:40:27.701Z,96854.04
2018-04-26T20:43:50.562Z,96855.28
2018-04-26T20:47:15.036Z,96851.38
2018-04-26T20:50:37.952Z,96845.19
2018-04-26T20:54:01.424Z,96843.02
2018-04-26T20:57:24.361Z,96843.03
2018-04-26T21:00:48.115Z,96836.85
2018-04-26T21:04:10.966Z,96843.28
2018-04-26T21:07:33.826Z,96833.88
2018-04-26T21:10:56.662Z,96836.55
2018-04-26T21:14:19.608Z,96831.52
2018-04-26T21:17:45.878Z,96832.50
2018-04-26T21:21:08.871Z,96825.36
2018-04-26T21:24:31.785Z,96831.45
2018-04-26T21:27:54.707Z,96831.42
2018-04-26T21:31:24.673Z,96832.09
2018-04-26T21:35:17.615Z,96833.20
2018-04-26T21:38:40.464Z,96832.59
2018-04-26T21:42:03.489Z,96833.00
2018-04-26T21:45:26.398Z,96837.19
2018-04-26T21:48:50.542Z,96828.28
2018-04-26T21:52:21.178Z,96833.04
2018-04-26T21:55:51.089Z,96831.05
2018-04-26T21:59:20.941Z,96819.95
2018-04-26T22:02:43.339Z,96816.14
2018-04-26T22:06:07.608Z,96815.29
2018-04-26T22:09:30.750Z,96808.98
2018-04-26T22:12:53.785Z,96810.13
2018-04-26T22:16:16.654Z,96813.13
2018-04-26T22:19:39.517Z,96803.62
2018-04-26T22:23:03.140Z,96810.38
2018-04-26T22:26:26.016Z,96806.48
2018-04-26T22:29:49.605Z,96803.72
2018-04-26T22:33:13.261Z,96800.05
2018-04-26T22:36:36.114Z,96801.57
2018-04-26T22:39:58.954Z,96794.63
2018-04-26T22:43:22.553Z,96796.52
2018-04-26T22:46:45.403Z,96794.69
2018-04-26T22:50:08.249Z,96796.60
2018-04-26T22:53:31.239Z,96788.94
2018-04-26T22:56:54.074Z,96785.19
2018-04-26T23:00:16.920Z,96796.02
2018-04-26T23:03:40.566Z,96791.58
2018-04-26T23:07:03.402Z,96789.76
2018-04-26T23:10:27.022Z,96790.05
2018-04-26T23:13:49.853Z,96783.87
2018-04-26T23:17:13.740Z,96775.25
2018-04-26T23:20:36.629Z,96779.06
2018-04-26T23:23:59.462Z,96777.65
2018-04-26T23:27:23.085Z,96773.72
2018-04-26T23:30:45.950Z,96773.89
2018-04-26T23:34:09.587Z,96778.05
2018-04-26T23:37:32.425Z,96770.91
2018-04-26T23:40:55.264Z,96764.56
2018-04-26T23:44:18.111Z,96758.92
2018-04-26T23:47:40.929Z,96746.01
2018-04-26T23:51:03.783Z,96749.95
2018-04-26T23:54:26.617Z,96754.48
2018-04-26T23:57:50.230Z,96755.74
